Accueil
METAR-TAF:

METAR-TAF

Aéroports :

Pacific Missile Range Facility

Kekaha, Hawaï, États-Unis

latitude: 22-02-11N, longitude: 159-47-11W, altitude: 4 m

Observation

Le bulletin a été fait il y a 55 minutes, à 09:56 UTC
Vent 3 kt de est/nord-est
Température 22°C
Humidité 73%
Pression 1016 hPa
Visibilité: 16.1 km
Ciel clair

METAR: PHBK 220956Z AUTO 07003KT 10SM CLR 22/17 A3000 RMK AO2 SLP162 T02220172 403060222

Heure: 00:51 (10:51 UTC)


TAF: absent

Observations et prévisions météorologiques de plus de 4000 aéroports (messages METAR et TAF).

Les stations disponibles sont représentées par des disques jaunes et rouges sur la carte.

Passer la souris dessus pour voir le nom de la station.

Cliquer dessus pour voir les observations et prévisions météorologiques.

Pour changer de carte: cliquez sur les boutons verts avec une croix noire pour zoomer, sur le bouton vert avec un tiret pour effectuer un zoom arrière, ou sur les flèches vertes pour les cartes adjacentes.


METAR-TAF: